Time;durP1;ratioP1;P1;durP2;ratioP2;P2;SDS_P1;SDS_P2;PMS_P1;PMS_P2;Temp;Humidity;BMP_temperature;BMP_pressure;BME280_temperature;BME280_humidity;BME280_pressure;Samples;Min_cycle;Max_cycle;Signal;HPM_P1;HPM_P2
2021/06/26 00:00:18;;;;;;;;;;;;;;;15.34;65.70;101106.07;1655639;86;20124;-73
2021/06/26 00:02:44;;;;;;;;;;;;;;;15.33;65.63;101111.73;1655234;86;20148;-73
2021/06/26 00:05:12;;;;;;;;;;;;;;;15.30;65.67;101101.84;1655273;86;20107;-73
2021/06/26 00:07:38;;;;;;;;;;;;;;;15.28;65.72;101099.73;1636108;86;20087;-73
2021/06/26 00:10:06;;;;;;;;;;;;;;;15.28;65.79;101108.84;1655411;86;20096;-73
2021/06/26 00:12:33;;;;;;;;;;;;;;;15.27;65.81;101105.39;1654781;86;20111;-73
2021/06/26 00:14:59;;;;;;;;;;;;;;;15.26;65.79;101108.89;1655748;86;20132;-73
2021/06/26 00:17:25;;;;;;;;;;;;;;;15.24;65.77;101109.38;1655053;86;20104;-73
2021/06/26 00:19:51;;;;;;;;;;;;;;;15.21;65.73;101111.62;1655681;85;20107;-73
2021/06/26 00:22:18;;;;;;;;;;;;;;;15.18;65.75;101110.40;1655358;86;20131;-73
2021/06/26 00:24:44;;;;;;;;;;;;;;;15.16;65.74;101112.63;1655677;86;20100;-73
2021/06/26 00:27:10;;;;;;;;;;;;;;;15.13;65.80;101112.27;1655614;86;20136;-73
2021/06/26 00:29:36;;;;;;;;;;;;;;;15.12;65.88;101113.16;1657040;85;20730;-73
2021/06/26 00:32:02;;;;;;;;;;;;;;;15.11;65.93;101106.69;1657861;86;20159;-73
2021/06/26 00:34:28;;;;;;;;;;;;;;;15.09;65.92;101103.27;1657605;86;20132;-73
2021/06/26 00:36:54;;;;;;;;;;;;;;;15.06;65.96;101099.48;1658105;85;20241;-73
2021/06/26 00:39:20;;;;;;;;;;;;;;;15.04;65.98;101113.84;1657716;86;20103;-73
2021/06/26 00:41:46;;;;;;;;;;;;;;;15.01;66.02;101107.42;1658061;86;20895;-73
2021/06/26 00:44:12;;;;;;;;;;;;;;;15.00;66.00;101103.55;1657903;85;20166;-72
2021/06/26 00:46:38;;;;;;;;;;;;;;;14.97;66.05;101107.53;1657776;86;20128;-72
2021/06/26 00:49:05;;;;;;;;;;;;;;;14.89;65.92;101101.22;1657878;86;20088;-72
2021/06/26 00:51:31;;;;;;;;;;;;;;;14.83;66.07;101098.78;1639297;86;20096;-72
2021/06/26 00:53:57;;;;;;;;;;;;;;;14.79;66.13;101101.05;1657727;86;20140;-72
2021/06/26 00:56:25;;;;;;;;;;;;;;;14.77;66.24;101107.59;1657558;86;20145;-73
2021/06/26 00:58:52;;;;;;;;;;;;;;;14.78;66.33;101111.05;1657211;86;20152;-73
2021/06/26 01:01:18;;;;;;;;;;;;;;;14.75;66.33;101108.08;1657183;86;20156;-73
2021/06/26 01:03:45;;;;;;;;;;;;;;;14.75;66.34;101115.89;1654710;86;20134;-73
2021/06/26 01:06:15;;;;;;;;;;;;;;;14.74;66.34;101110.72;1657497;86;20108;-73
2021/06/26 01:08:41;;;;;;;;;;;;;;;14.72;66.38;101119.02;1655476;85;20107;-73
2021/06/26 01:11:08;;;;;;;;;;;;;;;14.66;66.20;101115.27;1653490;86;20509;-73
2021/06/26 01:13:35;;;;;;;;;;;;;;;14.58;66.36;101109.80;1656286;85;20135;-73
2021/06/26 01:16:01;;;;;;;;;;;;;;;14.56;66.49;101106.83;1657714;86;20095;-73
2021/06/26 01:18:27;;;;;;;;;;;;;;;14.54;66.46;101101.69;1657375;85;20140;-73
2021/06/26 01:20:53;;;;;;;;;;;;;;;14.52;66.51;101103.48;1657519;85;21212;-73
2021/06/26 01:23:20;;;;;;;;;;;;;;;14.50;66.53;101107.01;1657878;86;20108;-73
2021/06/26 01:25:46;;;;;;;;;;;;;;;14.48;66.66;101106.19;1658055;85;20087;-73
2021/06/26 01:28:14;;;;;;;;;;;;;;;14.49;66.66;101106.16;1657299;86;20162;-73
2021/06/26 01:30:41;;;;;;;;;;;;;;;14.48;66.63;101105.74;1657968;86;20123;-73
2021/06/26 01:33:07;;;;;;;;;;;;;;;14.44;66.66;101101.95;1657464;86;20111;-73
2021/06/26 01:35:33;;;;;;;;;;;;;;;14.41;66.69;101101.99;1657623;86;20100;-73
2021/06/26 01:38:02;;;;;;;;;;;;;;;14.38;66.74;101094.26;1658141;85;20127;-73
2021/06/26 01:40:28;;;;;;;;;;;;;;;14.36;66.82;101089.09;1657620;86;20559;-73
2021/06/26 01:42:55;;;;;;;;;;;;;;;14.37;66.84;101089.50;1657351;86;20096;-72
2021/06/26 01:45:22;;;;;;;;;;;;;;;14.33;66.80;101087.86;1657901;86;20112;-72
2021/06/26 01:47:57;;;;;;;;;;;;;;;14.32;66.76;101087.90;1657412;86;20162;-72
2021/06/26 01:50:25;;;;;;;;;;;;;;;14.20;66.61;101092.50;1657765;86;20099;-72
2021/06/26 01:52:51;;;;;;;;;;;;;;;14.16;66.80;101093.90;1651398;84;20112;-72
2021/06/26 01:55:18;;;;;;;;;;;;;;;14.13;66.88;101100.47;1657822;86;20415;-72
2021/06/26 01:57:45;;;;;;;;;;;;;;;14.12;66.96;101099.62;1657672;86;20140;-72
2021/06/26 02:00:11;;;;;;;;;;;;;;;14.10;66.93;101109.64;1657245;86;20127;-72
2021/06/26 02:02:37;;;;;;;;;;;;;;;14.00;66.88;101111.63;1657302;86;20132;-72
2021/06/26 02:05:05;;;;;;;;;;;;;;;13.94;67.03;101110.45;1657802;86;20132;-72
2021/06/26 02:07:31;;;;;;;;;;;;;;;13.94;67.23;101112.20;1645413;86;20111;-72
2021/06/26 02:09:58;;;;;;;;;;;;;;;13.94;67.25;101109.16;1657834;86;20116;-72
2021/06/26 02:12:24;;;;;;;;;;;;;;;13.95;67.29;101112.17;1657719;86;20087;-72
2021/06/26 02:14:53;;;;;;;;;;;;;;;13.99;67.35;101111.66;1657746;86;20108;-72
2021/06/26 02:17:22;;;;;;;;;;;;;;;14.00;67.34;101115.97;1657397;86;20128;-72
2021/06/26 02:19:49;;;;;;;;;;;;;;;13.99;67.31;101112.95;1657435;86;20103;-72
2021/06/26 02:22:16;;;;;;;;;;;;;;;13.97;67.34;101110.39;1656684;86;20534;-72
2021/06/26 02:24:42;;;;;;;;;;;;;;;13.95;67.36;101110.87;1657416;86;20415;-72
2021/06/26 02:27:08;;;;;;;;;;;;;;;13.95;67.43;101114.77;1657663;85;20692;-72
2021/06/26 02:29:34;;;;;;;;;;;;;;;13.97;67.51;101117.34;1656447;86;20096;-72
2021/06/26 02:32:00;;;;;;;;;;;;;;;13.97;67.50;101125.99;1655095;86;20103;-72
2021/06/26 02:34:26;;;;;;;;;;;;;;;13.99;67.53;101127.26;1655281;86;20781;-72
2021/06/26 02:36:53;;;;;;;;;;;;;;;13.99;67.37;101138.52;1655860;86;20140;-72
2021/06/26 02:39:19;;;;;;;;;;;;;;;13.94;67.43;101136.90;1655664;86;20095;-72
2021/06/26 02:41:45;;;;;;;;;;;;;;;13.95;67.54;101137.31;1655278;86;20141;-72
2021/06/26 02:44:11;;;;;;;;;;;;;;;13.96;67.64;101133.38;1655555;86;20095;-72
2021/06/26 02:46:37;;;;;;;;;;;;;;;13.98;67.67;101130.75;1655556;86;21230;-72
2021/06/26 02:49:03;;;;;;;;;;;;;;;14.01;67.65;101134.58;1655098;86;20112;-72
2021/06/26 02:51:29;;;;;;;;;;;;;;;14.02;67.68;101138.89;1655451;86;20127;-73
2021/06/26 02:53:55;;;;;;;;;;;;;;;14.03;67.77;101139.30;1655308;86;20768;-73
2021/06/26 02:56:22;;;;;;;;;;;;;;;14.05;67.77;101136.20;1653340;86;20167;-73
2021/06/26 02:58:48;;;;;;;;;;;;;;;14.05;67.79;101135.75;1652851;85;20139;-73
2021/06/26 03:01:14;;;;;;;;;;;;;;;14.04;67.76;101137.94;1653154;86;20135;-73
2021/06/26 03:03:40;;;;;;;;;;;;;;;14.01;67.79;101142.38;1653626;85;20741;-73
2021/06/26 03:06:06;;;;;;;;;;;;;;;14.01;67.91;101144.98;1646332;86;20181;-73
2021/06/26 03:08:32;;;;;;;;;;;;;;;14.01;67.96;101143.68;1648085;86;20226;-73
2021/06/26 03:10:58;;;;;;;;;;;;;;;14.04;68.05;101147.48;1652761;86;20195;-73
2021/06/26 03:13:24;;;;;;;;;;;;;;;14.02;67.79;101143.65;1636713;86;20245;-73
2021/06/26 03:15:50;;;;;;;;;;;;;;;13.97;67.75;101151.99;1653277;86;21488;-73
2021/06/26 03:18:16;;;;;;;;;;;;;;;13.90;67.56;101155.16;1655237;86;20088;-72
2021/06/26 03:20:42;;;;;;;;;;;;;;;13.85;67.88;101157.45;1655797;86;20723;-72
2021/06/26 03:23:09;;;;;;;;;;;;;;;13.89;68.08;101158.66;1655778;85;20809;-73
2021/06/26 03:25:35;;;;;;;;;;;;;;;13.99;68.17;101162.36;1655152;86;20128;-73
2021/06/26 03:28:01;;;;;;;;;;;;;;;14.07;68.22;101166.92;1640529;86;20396;-73
2021/06/26 03:30:27;;;;;;;;;;;;;;;14.16;68.23;101165.42;1654813;86;20124;-73
2021/06/26 03:32:53;;;;;;;;;;;;;;;14.20;68.17;101166.63;1655433;86;20404;-73
2021/06/26 03:35:19;;;;;;;;;;;;;;;14.25;68.22;101161.32;1654438;86;20474;-73
2021/06/26 03:37:45;;;;;;;;;;;;;;;14.32;68.28;101164.64;1655590;85;20813;-73
2021/06/26 03:40:12;;;;;;;;;;;;;;;14.40;68.29;101170.53;1637700;86;20530;-73
2021/06/26 03:42:38;;;;;;;;;;;;;;;14.45;68.29;101172.61;1655247;84;20693;-72
2021/06/26 03:45:07;;;;;;;;;;;;;;;14.51;68.30;101169.88;1655725;86;20128;-72
2021/06/26 03:47:33;;;;;;;;;;;;;;;14.56;68.29;101174.48;1640557;86;20781;-72
2021/06/26 03:49:59;;;;;;;;;;;;;;;14.60;68.36;101177.44;1655129;86;20881;-72
2021/06/26 03:52:25;;;;;;;;;;;;;;;14.70;68.39;101172.86;1640430;86;20738;-72
2021/06/26 03:54:52;;;;;;;;;;;;;;;14.74;68.37;101175.36;1655468;86;20698;-72
2021/06/26 03:57:18;;;;;;;;;;;;;;;14.83;68.51;101172.98;1655716;86;20111;-72
2021/06/26 03:59:44;;;;;;;;;;;;;;;14.93;68.41;101170.56;1638866;86;20443;-72
2021/06/26 04:02:10;;;;;;;;;;;;;;;14.96;68.38;101169.18;1640602;85;20202;-72
2021/06/26 04:04:36;;;;;;;;;;;;;;;15.01;68.55;101167.77;1658175;85;20783;-72
2021/06/26 04:07:03;;;;;;;;;;;;;;;15.13;68.63;101173.48;1655470;86;20538;-72
2021/06/26 04:09:29;;;;;;;;;;;;;;;15.26;68.73;101175.33;1655697;86;20136;-73
2021/06/26 04:11:55;;;;;;;;;;;;;;;15.41;68.76;101177.53;1655797;86;20533;-73
2021/06/26 04:14:22;;;;;;;;;;;;;;;15.67;68.90;101170.75;1655596;86;20109;-73
2021/06/26 04:16:48;;;;;;;;;;;;;;;15.91;68.84;101163.53;1655818;86;20528;-73
2021/06/26 04:19:14;;;;;;;;;;;;;;;16.12;68.76;101159.41;1638960;86;20718;-73
2021/06/26 04:21:42;;;;;;;;;;;;;;;16.25;68.59;101158.59;1655511;86;20420;-73
2021/06/26 04:24:09;;;;;;;;;;;;;;;16.36;68.64;101157.35;1654774;85;20399;-73
2021/06/26 04:26:35;;;;;;;;;;;;;;;16.54;68.74;101165.91;1655085;86;20111;-73
2021/06/26 04:29:01;;;;;;;;;;;;;;;16.73;68.62;101164.02;1654886;86;20208;-73
2021/06/26 04:31:27;;;;;;;;;;;;;;;16.86;68.61;101165.33;1641404;85;110143;-73
2021/06/26 04:33:53;;;;;;;;;;;;;;;16.97;68.54;101172.81;1645662;87;21127;-73
2021/06/26 04:36:19;;;;;;;;;;;;;;;16.96;68.40;101171.10;1644127;87;20440;-73
2021/06/26 04:38:45;;;;;;;;;;;;;;;17.00;68.63;101177.94;1644662;85;20459;-73
2021/06/26 04:41:12;;;;;;;;;;;;;;;17.10;68.56;101184.56;1644332;87;20432;-73
2021/06/26 04:43:38;;;;;;;;;;;;;;;17.12;68.60;101187.52;1644129;87;20393;-73
2021/06/26 04:46:07;;;;;;;;;;;;;;;17.18;68.54;101189.05;1644428;87;20089;-73
2021/06/26 04:48:34;;;;;;;;;;;;;;;17.22;68.61;101184.11;1644631;87;20404;-73
2021/06/26 04:51:00;;;;;;;;;;;;;;;17.30;68.62;101176.01;1644487;87;20105;-73
2021/06/26 04:53:26;;;;;;;;;;;;;;;17.42;68.68;101185.59;1644238;86;20617;-73
2021/06/26 04:55:52;;;;;;;;;;;;;;;17.55;68.59;101183.39;1624194;86;20762;-73
2021/06/26 04:58:22;;;;;;;;;;;;;;;17.70;68.71;101180.23;1644343;85;20426;-73
2021/06/26 05:00:57;;;;;;;;;;;;;;;17.95;68.87;101178.88;1644644;87;20763;-73
2021/06/26 05:03:19;;;;;;;;;;;;;;;18.39;68.96;101182.84;1644379;86;20788;-73
2021/06/26 05:05:45;;;;;;;;;;;;;;;18.86;68.80;101182.25;1644767;87;20795;-73
2021/06/26 05:08:12;;;;;;;;;;;;;;;19.33;68.57;101186.77;1644846;87;20136;-73
2021/06/26 05:10:38;;;;;;;;;;;;;;;19.83;68.70;101182.38;1631101;87;20545;-73
2021/06/26 05:13:04;;;;;;;;;;;;;;;20.43;68.41;101181.31;1642234;87;20096;-73
2021/06/26 05:15:31;;;;;;;;;;;;;;;21.01;67.88;101185.01;1643041;87;20746;-73
2021/06/26 05:17:57;;;;;;;;;;;;;;;21.47;67.81;101183.52;1644894;87;20112;-73
2021/06/26 05:20:23;;;;;;;;;;;;;;;21.99;67.55;101190.39;1644903;87;20440;-73
2021/06/26 05:22:49;;;;;;;;;;;;;;;22.37;67.25;101185.66;1644516;87;20392;-73
2021/06/26 05:25:15;;;;;;;;;;;;;;;22.82;67.16;101183.55;1644918;87;20179;-73
2021/06/26 05:27:41;;;;;;;;;;;;;;;23.25;66.90;101188.45;1644287;87;20562;-73
2021/06/26 05:30:08;;;;;;;;;;;;;;;23.58;66.49;101187.36;1646001;86;20518;-73
2021/06/26 05:32:34;;;;;;;;;;;;;;;23.48;65.92;101187.51;1649541;86;20230;-73
2021/06/26 05:35:00;;;;;;;;;;;;;;;23.08;65.82;101185.48;1630486;86;20170;-73
2021/06/26 05:37:26;;;;;;;;;;;;;;;22.80;66.12;101182.78;1648016;86;20619;-73
2021/06/26 05:39:52;;;;;;;;;;;;;;;22.66;66.25;101174.32;1648204;86;20234;-73
2021/06/26 05:42:18;;;;;;;;;;;;;;;22.90;66.79;101183.92;1648758;86;21043;-73
2021/06/26 05:44:44;;;;;;;;;;;;;;;23.48;66.85;101181.75;1639128;86;20185;-73
2021/06/26 05:47:10;;;;;;;;;;;;;;;24.02;66.05;101184.11;1641420;87;20117;-73
2021/06/26 05:49:36;;;;;;;;;;;;;;;24.31;65.92;101195.98;1647945;87;20210;-74
2021/06/26 05:52:02;;;;;;;;;;;;;;;24.55;65.53;101199.66;1644521;86;20204;-74
2021/06/26 05:54:29;;;;;;;;;;;;;;;24.53;65.48;101201.55;1644758;85;20135;-73
2021/06/26 05:56:55;;;;;;;;;;;;;;;24.44;65.23;101198.18;1624929;87;20146;-73
2021/06/26 05:59:22;;;;;;;;;;;;;;;24.40;65.29;101202.84;1640318;85;20090;-73
2021/06/26 06:01:48;;;;;;;;;;;;;;;24.40;65.19;101200.68;1622691;85;20134;-73
2021/06/26 06:04:14;;;;;;;;;;;;;;;24.24;65.10;101202.57;1632266;85;20102;-73
2021/06/26 06:06:40;;;;;;;;;;;;;;;24.39;65.36;101204.27;1639320;85;20181;-73
2021/06/26 06:09:06;;;;;;;;;;;;;;;24.63;65.45;101201.33;1634343;85;20134;-73
2021/06/26 06:11:34;;;;;;;;;;;;;;;25.19;65.25;101203.81;1633699;86;20088;-73
2021/06/26 06:13:59;;;;;;;;;;;;;;;25.71;64.83;101200.60;1630867;87;20124;-73
2021/06/26 06:16:25;;;;;;;;;;;;;;;26.30;64.63;101198.12;1643003;85;20175;-73
2021/06/26 06:18:51;;;;;;;;;;;;;;;26.90;64.48;101205.66;1644295;85;20209;-73
2021/06/26 06:21:18;;;;;;;;;;;;;;;27.14;63.74;101207.80;1648946;87;20088;-73
2021/06/26 06:23:44;;;;;;;;;;;;;;;27.46;63.77;101201.83;1606320;88;20120;-73
2021/06/26 06:26:10;;;;;;;;;;;;;;;27.51;63.13;101204.98;1600759;89;20104;-73
2021/06/26 06:28:36;;;;;;;;;;;;;;;27.44;63.35;101215.23;1605144;88;20179;-73
2021/06/26 06:31:02;;;;;;;;;;;;;;;27.31;62.82;101210.02;1603064;88;20113;-74
2021/06/26 06:33:29;;;;;;;;;;;;;;;27.33;63.20;101204.10;1643565;87;20166;-75
2021/06/26 06:35:55;;;;;;;;;;;;;;;27.61;62.98;101207.28;1629626;87;20123;-75
2021/06/26 06:38:21;;;;;;;;;;;;;;;27.96;62.75;101206.69;1631419;87;20165;-74
2021/06/26 06:40:47;;;;;;;;;;;;;;;28.14;62.14;101214.13;1636761;87;20136;-74
2021/06/26 06:43:13;;;;;;;;;;;;;;;28.14;62.14;101214.98;1639338;87;20138;-75
2021/06/26 06:45:39;;;;;;;;;;;;;;;28.17;61.90;101217.88;1644634;87;20143;-75
2021/06/26 06:48:06;;;;;;;;;;;;;;;28.20;61.73;101206.99;1640539;87;20125;-75
2021/06/26 06:50:32;;;;;;;;;;;;;;;28.24;61.37;101211.98;1627722;87;20137;-75
2021/06/26 06:53:01;;;;;;;;;;;;;;;27.89;60.74;101219.25;1644572;86;20108;-75
2021/06/26 06:55:26;;;;;;;;;;;;;;;27.39;60.63;101222.70;1638101;85;20448;-74
2021/06/26 06:57:52;;;;;;;;;;;;;;;26.86;60.61;101228.93;1631666;86;20153;-74
2021/06/26 07:00:18;;;;;;;;;;;;;;;26.44;60.77;101226.81;1643374;86;20207;-74
2021/06/26 07:02:44;;;;;;;;;;;;;;;26.05;60.76;101228.67;1647168;85;20088;-74
2021/06/26 07:05:10;;;;;;;;;;;;;;;25.71;60.63;101226.25;1644491;86;20190;-74
2021/06/26 07:07:36;;;;;;;;;;;;;;;25.43;60.56;101229.94;1653563;85;20132;-75
2021/06/26 07:10:04;;;;;;;;;;;;;;;25.16;60.53;101235.30;1644424;87;20137;-75
2021/06/26 07:12:30;;;;;;;;;;;;;;;24.93;60.56;101230.69;1643971;85;20112;-74
2021/06/26 07:14:56;;;;;;;;;;;;;;;24.69;60.47;101230.02;1639063;87;20739;-74
2021/06/26 07:17:22;;;;;;;;;;;;;;;24.50;60.39;101228.19;1642444;85;20226;-74
2021/06/26 07:19:48;;;;;;;;;;;;;;;24.20;60.18;101221.73;1640995;87;20198;-74
2021/06/26 07:22:14;;;;;;;;;;;;;;;24.02;60.15;101224.20;1640090;87;20259;-74
2021/06/26 07:24:40;;;;;;;;;;;;;;;23.89;60.17;101226.79;1625928;87;20211;-74
2021/06/26 07:27:06;;;;;;;;;;;;;;;23.78;60.00;101219.16;1641550;87;20184;-74
2021/06/26 07:29:32;;;;;;;;;;;;;;;23.66;60.08;101220.28;1641747;87;20317;-74
2021/06/26 07:31:59;;;;;;;;;;;;;;;23.60;60.00;101217.16;1648263;85;20222;-74
2021/06/26 07:34:25;;;;;;;;;;;;;;;23.55;59.84;101212.63;1637851;86;20179;-74
2021/06/26 07:36:51;;;;;;;;;;;;;;;23.52;59.84;101221.55;1655457;85;20202;-74
2021/06/26 07:39:17;;;;;;;;;;;;;;;23.56;59.76;101216.97;1654838;85;21110;-74
2021/06/26 07:41:43;;;;;;;;;;;;;;;23.71;59.78;101208.11;1656447;85;20104;-74
2021/06/26 07:44:10;;;;;;;;;;;;;;;23.84;59.45;101201.61;1655351;85;20100;-74
2021/06/26 07:46:36;;;;;;;;;;;;;;;23.92;59.31;101211.19;1641084;86;20150;-74
2021/06/26 07:49:02;;;;;;;;;;;;;;;23.93;59.20;101208.45;1657478;86;20103;-74
2021/06/26 07:51:28;;;;;;;;;;;;;;;24.00;59.09;101202.32;1656775;85;20167;-74
2021/06/26 07:53:54;;;;;;;;;;;;;;;24.09;59.06;101198.63;1660502;84;20158;-74
2021/06/26 07:56:20;;;;;;;;;;;;;;;24.35;59.39;101203.61;1655867;85;20162;-74
2021/06/26 07:58:46;;;;;;;;;;;;;;;25.12;59.39;101205.17;1637773;86;20158;-74
2021/06/26 08:01:14;;;;;;;;;;;;;;;25.80;58.78;101204.89;1643727;86;20182;-74
2021/06/26 08:03:40;;;;;;;;;;;;;;;26.34;58.44;101200.11;1654854;85;20144;-74
2021/06/26 08:06:06;;;;;;;;;;;;;;;26.70;58.05;101200.03;1644663;85;20174;-74
2021/06/26 08:08:32;;;;;;;;;;;;;;;26.89;58.13;101196.01;1657046;86;20174;-74
2021/06/26 08:10:57;;;;;;;;;;;;;;;27.18;57.94;101213.72;1639357;86;20185;-75
2021/06/26 08:13:24;;;;;;;;;;;;;;;27.26;57.71;101209.52;1657272;86;20166;-75
2021/06/26 08:15:50;;;;;;;;;;;;;;;27.38;57.72;101206.41;1639817;86;20167;-75
2021/06/26 08:18:16;;;;;;;;;;;;;;;27.60;57.72;101203.78;1656560;86;20096;-74
2021/06/26 08:20:43;;;;;;;;;;;;;;;27.63;57.34;101200.88;1656887;86;20194;-75
2021/06/26 08:23:09;;;;;;;;;;;;;;;27.64;57.16;101193.77;1657137;86;20096;-75
2021/06/26 08:25:35;;;;;;;;;;;;;;;27.66;57.29;101194.00;1658738;85;20111;-74
2021/06/26 08:28:01;;;;;;;;;;;;;;;27.83;57.30;101193.16;1657375;86;20123;-74
2021/06/26 08:30:28;;;;;;;;;;;;;;;28.07;57.07;101199.19;1657167;86;20174;-74
2021/06/26 08:32:54;;;;;;;;;;;;;;;28.32;57.09;101196.23;1655566;85;20131;-74
2021/06/26 08:35:20;;;;;;;;;;;;;;;28.39;56.54;101193.93;1653826;86;20179;-77
2021/06/26 08:37:48;;;;;;;;;;;;;;;28.36;56.17;101195.99;1655309;86;20116;-78
2021/06/26 08:40:15;;;;;;;;;;;;;;;28.00;55.90;101206.80;1640402;86;20156;-77
2021/06/26 08:42:42;;;;;;;;;;;;;;;27.55;55.95;101208.61;1652935;85;20457;-77
2021/06/26 08:45:10;;;;;;;;;;;;;;;27.34;56.07;101208.94;1655341;85;20112;-77
2021/06/26 08:47:37;;;;;;;;;;;;;;;27.31;55.76;101209.17;1654679;86;20561;-77
2021/06/26 08:50:05;;;;;;;;;;;;;;;27.39;55.82;101214.73;1655658;86;20107;-77
2021/06/26 08:52:31;;;;;;;;;;;;;;;27.55;55.54;101209.09;1654146;86;20973;-77
2021/06/26 08:54:57;;;;;;;;;;;;;;;27.64;55.15;101209.22;1655329;85;20096;-77
2021/06/26 08:57:34;;;;;;;;;;;;;;;27.61;54.80;101213.44;1655549;85;20108;-77
2021/06/26 09:00:01;;;;;;;;;;;;;;;27.58;54.35;101207.01;1654652;85;20096;-77
2021/06/26 09:02:29;;;;;;;;;;;;;;;27.34;54.59;101211.59;1654658;86;20153;-77
2021/06/26 09:04:56;;;;;;;;;;;;;;;27.49;54.17;101199.78;1660130;84;20126;-77
2021/06/26 09:07:29;;;;;;;;;;;;;;;28.06;54.20;101212.13;1620122;86;20112;-77
2021/06/26 09:09:56;;;;;;;;;;;;;;;28.77;53.92;101200.06;1652752;85;20108;-77
2021/06/26 09:12:23;;;;;;;;;;;;;;;29.38;53.99;101206.87;1654712;85;20116;-77
2021/06/26 09:14:49;;;;;;;;;;;;;;;29.67;53.33;101207.03;1655263;86;20087;-77
2021/06/26 09:17:20;;;;;;;;;;;;;;;29.89;53.08;101208.19;1654375;86;20518;-77
2021/06/26 09:19:56;;;;;;;;;;;;;;;29.77;53.14;101207.08;1653517;86;20200;-77
2021/06/26 09:22:22;;;;;;;;;;;;;;;29.94;52.93;101197.95;1644473;86;20195;-75
2021/06/26 09:24:51;;;;;;;;;;;;;;;30.03;53.10;101202.16;1653869;86;20301;-75
2021/06/26 09:27:19;;;;;;;;;;;;;;;29.87;52.62;101198.63;1655613;85;20131;-74
2021/06/26 09:29:56;;;;;;;;;;;;;;;29.61;52.43;101197.78;1654790;86;20363;-74
2021/06/26 09:32:24;;;;;;;;;;;;;;;29.09;52.61;101200.06;1655155;85;20190;-74
2021/06/26 09:34:51;;;;;;;;;;;;;;;28.34;52.57;101196.96;1652789;86;20250;-76
2021/06/26 09:37:25;;;;;;;;;;;;;;;27.97;52.30;101190.25;1655892;86;20198;-75
2021/06/26 09:39:55;;;;;;;;;;;;;;;27.57;51.94;101192.03;1640224;86;20099;-75
2021/06/26 09:42:27;;;;;;;;;;;;;;;27.25;51.80;101194.55;1655309;86;20123;-75
2021/06/26 09:44:57;;;;;;;;;;;;;;;26.97;51.56;101181.71;1658207;86;20096;-75
2021/06/26 09:47:34;;;;;;;;;;;;;;;26.79;51.47;101174.62;1621340;88;20456;-75
2021/06/26 09:50:09;;;;;;;;;;;;;;;26.76;51.31;101172.67;1606135;88;20184;-75
2021/06/26 09:52:43;;;;;;;;;;;;;;;26.67;50.99;101175.53;1604367;88;20156;-75
2021/06/26 09:55:27;;;;;;;;;;;;;;;26.42;50.77;101179.18;1603152;89;20236;-75
2021/06/26 09:57:59;;;;;;;;;;;;;;;26.28;50.76;101173.52;1600370;88;20109;-75
2021/06/26 10:00:28;;;;;;;;;;;;;;;26.25;50.59;101167.12;1601443;88;20116;-75
2021/06/26 10:02:55;;;;;;;;;;;;;;;26.26;50.67;101168.81;1609999;88;20132;-75
2021/06/26 10:05:21;;;;;;;;;;;;;;;26.21;50.55;101163.48;1607886;88;20112;-75
2021/06/26 10:07:48;;;;;;;;;;;;;;;26.04;50.25;101165.53;1594248;88;20161;-75
2021/06/26 10:10:19;;;;;;;;;;;;;;;26.04;50.26;101171.31;1606404;88;20124;-75
2021/06/26 10:12:45;;;;;;;;;;;;;;;25.97;49.98;101173.59;1606782;88;20137;-75
2021/06/26 10:15:12;;;;;;;;;;;;;;;25.90;49.96;101164.86;1607968;89;20171;-75
2021/06/26 10:17:38;;;;;;;;;;;;;;;25.90;50.01;101178.95;1607524;88;20756;-75
2021/06/26 10:20:07;;;;;;;;;;;;;;;25.98;49.94;101167.33;1594223;89;20122;-75
2021/06/26 10:22:38;;;;;;;;;;;;;;;25.85;49.62;101169.16;1606548;88;20116;-75
2021/06/26 10:25:05;;;;;;;;;;;;;;;25.81;49.70;101165.03;1607999;88;20135;-75
2021/06/26 10:27:31;;;;;;;;;;;;;;;25.82;49.88;101164.56;1607980;88;20093;-75
2021/06/26 10:30:17;;;;;;;;;;;;;;;25.94;49.71;101156.59;1608101;88;20113;-75
2021/06/26 10:32:55;;;;;;;;;;;;;;;26.01;49.40;101151.66;1612226;88;20507;-76
2021/06/26 10:35:23;;;;;;;;;;;;;;;26.03;49.15;101160.34;1607732;89;20112;-75
2021/06/26 10:38:12;;;;;;;;;;;;;;;25.99;49.09;101155.78;1607997;88;20116;-75
2021/06/26 10:40:46;;;;;;;;;;;;;;;25.99;48.89;101155.78;1607692;88;20092;-75
2021/06/26 10:43:27;;;;;;;;;;;;;;;25.95;48.89;101156.95;1607489;88;20145;-74
2021/06/26 10:46:10;;;;;;;;;;;;;;;25.85;48.85;101151.09;1606140;89;20141;-74
2021/06/26 10:48:37;;;;;;;;;;;;;;;25.77;48.49;101154.29;1596310;88;20112;-74
2021/06/26 10:51:04;;;;;;;;;;;;;;;25.77;48.42;101149.47;1598867;89;20133;-74
2021/06/26 10:53:36;;;;;;;;;;;;;;;25.72;48.59;101149.31;1607816;88;20096;-74
2021/06/26 10:56:10;;;;;;;;;;;;;;;25.59;48.25;101155.07;1607692;88;20157;-75
2021/06/26 10:58:41;;;;;;;;;;;;;;;25.64;48.16;101152.98;1607924;88;20112;-75
2021/06/26 11:01:19;;;;;;;;;;;;;;;25.66;47.97;101154.20;1607502;88;20133;-75
2021/06/26 11:03:49;;;;;;;;;;;;;;;25.63;48.30;101141.98;1582217;89;33160;-75
2021/06/26 11:06:26;;;;;;;;;;;;;;;25.58;47.80;101139.28;1607936;88;20101;-75
2021/06/26 11:08:58;;;;;;;;;;;;;;;25.53;47.66;101142.73;1607646;88;20160;-75
2021/06/26 11:11:33;;;;;;;;;;;;;;;25.59;47.63;101139.66;1606829;88;20112;-75
2021/06/26 11:14:08;;;;;;;;;;;;;;;25.61;47.45;101150.52;1606999;88;20128;-75
2021/06/26 11:16:35;;;;;;;;;;;;;;;25.60;47.38;101140.88;1603136;89;20112;-75
2021/06/26 11:19:01;;;;;;;;;;;;;;;25.65;47.37;101134.81;1605953;88;20108;-75
2021/06/26 11:21:27;;;;;;;;;;;;;;;25.68;47.32;101137.72;1607177;88;20137;-75
2021/06/26 11:23:53;;;;;;;;;;;;;;;25.75;47.25;101133.68;1606041;88;20186;-75
2021/06/26 11:26:20;;;;;;;;;;;;;;;25.77;47.17;101133.09;1607873;89;20140;-75
2021/06/26 11:28:46;;;;;;;;;;;;;;;25.71;46.76;101142.80;1607827;88;20594;-75
2021/06/26 11:31:12;;;;;;;;;;;;;;;25.55;46.79;101141.67;1607768;88;20128;-73
2021/06/26 11:33:40;;;;;;;;;;;;;;;25.39;46.63;101139.75;1599333;88;20126;-75
2021/06/26 11:36:14;;;;;;;;;;;;;;;25.40;46.90;101131.70;1605964;88;20110;-75
2021/06/26 11:38:41;;;;;;;;;;;;;;;25.45;46.92;101135.84;1605658;88;20133;-75
2021/06/26 11:41:09;;;;;;;;;;;;;;;25.54;46.83;101136.00;1604573;88;20128;-75
2021/06/26 11:43:36;;;;;;;;;;;;;;;25.66;46.70;101133.00;1603823;89;20160;-75
2021/06/26 11:46:04;;;;;;;;;;;;;;;25.65;46.46;101137.45;1602457;88;20100;-75
2021/06/26 11:48:31;;;;;;;;;;;;;;;25.72;46.55;101137.88;1604285;88;20160;-75
2021/06/26 11:51:01;;;;;;;;;;;;;;;25.81;46.22;101133.24;1577545;89;20141;-75
2021/06/26 11:53:27;;;;;;;;;;;;;;;25.86;46.14;101128.46;1605715;88;20104;-75
2021/06/26 11:55:59;;;;;;;;;;;;;;;25.89;46.12;101124.27;1605811;88;20104;-75
2021/06/26 11:58:46;;;;;;;;;;;;;;;25.87;46.06;101127.98;1589675;88;20125;-76
2021/06/26 12:01:27;;;;;;;;;;;;;;;25.77;45.83;101129.13;1605309;88;20132;-76
2021/06/26 12:03:54;;;;;;;;;;;;;;;25.70;45.74;101119.91;1601938;88;20100;-76
2021/06/26 12:06:20;;;;;;;;;;;;;;;25.68;45.67;101119.17;1594515;88;20118;-76
2021/06/26 12:08:55;;;;;;;;;;;;;;;25.69;45.56;101108.95;1593737;88;20112;-76
2021/06/26 12:11:33;;;;;;;;;;;;;;;25.70;45.56;101118.11;1604475;88;20133;-76
2021/06/26 12:14:00;;;;;;;;;;;;;;;25.69;45.22;101114.25;1601458;88;20116;-76
2021/06/26 12:16:37;;;;;;;;;;;;;;;25.60;45.13;101108.24;1605714;88;20115;-76
2021/06/26 12:19:11;;;;;;;;;;;;;;;25.57;45.33;101091.25;1603659;88;20483;-76
2021/06/26 12:21:42;;;;;;;;;;;;;;;25.55;45.01;101103.75;1591719;88;20100;-76
2021/06/26 12:24:10;;;;;;;;;;;;;;;25.58;45.13;101102.20;1605623;88;20136;-76
2021/06/26 12:26:36;;;;;;;;;;;;;;;25.59;44.79;101095.48;1603595;88;20112;-76
2021/06/26 12:29:02;;;;;;;;;;;;;;;25.61;44.88;101095.37;1605831;88;20145;-76
2021/06/26 12:31:28;;;;;;;;;;;;;;;25.60;44.70;101086.58;1605943;88;20162;-76
2021/06/26 12:34:01;;;;;;;;;;;;;;;25.66;44.66;101081.36;1608511;88;20108;-76
2021/06/26 12:36:28;;;;;;;;;;;;;;;25.69;44.80;101085.11;1613619;88;20115;-76